createdAt,value
2023-01-09T00:02:04.311Z,96573.50
2023-01-09T00:04:30.982Z,96568.34
2023-01-09T00:06:57.662Z,96573.00
2023-01-09T00:09:24.696Z,96586.50
2023-01-09T00:11:52.368Z,96579.78
2023-01-09T00:14:19.452Z,96577.66
2023-01-09T00:16:46.438Z,96575.78
2023-01-09T00:19:13.155Z,96569.50
2023-01-09T00:21:40.051Z,96568.72
2023-01-09T00:24:07.295Z,96566.47
2023-01-09T00:26:34.601Z,96572.75
2023-01-09T00:29:03.564Z,96576.00
2023-01-09T00:31:30.317Z,96574.00
2023-01-09T00:34:05.026Z,96577.94
2023-01-09T00:36:31.935Z,96586.00
2023-01-09T00:38:59.026Z,96587.78
2023-01-09T00:41:47.192Z,96590.06
2023-01-09T00:44:19.934Z,96575.97
2023-01-09T00:46:51.731Z,96572.09
2023-01-09T00:49:18.732Z,96570.69
2023-01-09T00:51:45.862Z,96574.91
2023-01-09T00:54:15.955Z,96571.31
2023-01-09T00:56:42.834Z,96575.69
2023-01-09T00:59:09.880Z,96582.50
2023-01-09T01:01:36.861Z,96582.53
2023-01-09T01:04:23.739Z,96582.66
2023-01-09T01:07:08.979Z,96587.31
2023-01-09T01:09:35.698Z,96601.97
2023-01-09T01:12:06.935Z,96608.53
2023-01-09T01:14:38.074Z,96602.81
2023-01-09T01:17:05.849Z,96592.88
2023-01-09T01:19:34.246Z,96595.66
2023-01-09T01:22:01.536Z,96605.00
2023-01-09T01:24:28.313Z,96613.69
2023-01-09T01:26:55.080Z,96614.53
2023-01-09T01:29:21.761Z,96626.16
2023-01-09T01:31:48.550Z,96625.75
2023-01-09T01:34:15.166Z,96627.44
2023-01-09T01:36:41.867Z,96628.81
2023-01-09T01:39:08.581Z,96628.44
2023-01-09T01:41:35.456Z,96638.38
2023-01-09T01:44:05.544Z,96637.44
2023-01-09T01:46:34.325Z,96641.59
2023-01-09T01:49:09.541Z,96644.28
2023-01-09T01:51:41.376Z,96645.84
2023-01-09T01:54:15.716Z,96661.81
2023-01-09T01:56:48.700Z,96662.19
2023-01-09T01:59:28.016Z,96672.63
2023-01-09T02:01:59.121Z,96673.75
2023-01-09T02:04:26.672Z,96681.69
2023-01-09T02:06:55.778Z,96684.22
2023-01-09T02:09:25.108Z,96693.00
2023-01-09T02:11:56.426Z,96696.47
2023-01-09T02:14:28.947Z,96706.31
2023-01-09T02:17:21.656Z,96706.44
2023-01-09T02:20:26.797Z,96715.50
2023-01-09T02:23:12.154Z,96718.72
2023-01-09T02:26:16.454Z,96712.94
2023-01-09T02:29:14.085Z,96726.00
2023-01-09T02:31:53.026Z,96721.56
2023-01-09T02:34:41.436Z,96721.97
2023-01-09T02:37:19.934Z,96718.09
2023-01-09T02:40:07.397Z,96726.81
2023-01-09T02:42:36.305Z,96733.22
2023-01-09T02:45:03.425Z,96738.50
2023-01-09T02:47:30.035Z,96745.28
2023-01-09T02:50:02.355Z,96742.81
2023-01-09T02:52:37.432Z,96749.16
2023-01-09T02:55:13.311Z,96751.88
2023-01-09T02:57:43.094Z,96756.66
2023-01-09T03:00:10.325Z,96762.09
2023-01-09T03:03:23.308Z,96767.19
2023-01-09T03:06:05.367Z,96767.19
2023-01-09T03:08:41.648Z,96770.41
2023-01-09T03:11:09.021Z,96767.19
2023-01-09T03:13:39.614Z,96780.75
2023-01-09T03:16:09.664Z,96780.16
2023-01-09T03:18:38.600Z,96794.50
2023-01-09T03:21:08.081Z,96797.94
2023-01-09T03:23:57.933Z,96799.75
2023-01-09T03:26:25.473Z,96798.59
2023-01-09T03:28:52.849Z,96800.28
2023-01-09T03:31:19.528Z,96817.78
2023-01-09T03:33:46.340Z,96816.66
2023-01-09T03:36:14.883Z,96814.03
2023-01-09T03:38:41.542Z,96827.44
2023-01-09T03:41:08.267Z,96830.13
2023-01-09T03:43:35.561Z,96833.84
2023-01-09T03:46:03.093Z,96844.66
2023-01-09T03:48:30.043Z,96850.72
2023-01-09T03:50:57.222Z,96853.72
2023-01-09T03:53:26.308Z,96864.41
2023-01-09T03:55:55.439Z,96859.31
2023-01-09T03:58:23.342Z,96860.91
2023-01-09T04:00:50.964Z,96872.31
2023-01-09T04:03:19.908Z,96878.34
2023-01-09T04:05:49.165Z,96888.53
2023-01-09T04:08:16.168Z,96886.41
2023-01-09T04:10:50.555Z,96881.34
2023-01-09T04:13:18.125Z,96885.59
2023-01-09T04:15:45.210Z,96876.91
2023-01-09T04:18:12.394Z,96892.69
2023-01-09T04:20:39.143Z,96888.06
2023-01-09T04:23:05.885Z,96899.84
2023-01-09T04:25:32.937Z,96894.50
2023-01-09T04:27:59.675Z,96899.81
2023-01-09T04:30:26.422Z,96901.56
2023-01-09T04:32:53.149Z,96899.56
2023-01-09T04:35:20.296Z,96907.66
2023-01-09T04:37:47.212Z,96913.75
2023-01-09T04:40:14.201Z,96918.13
2023-01-09T04:42:41.278Z,96916.69
2023-01-09T04:45:11.941Z,96922.31
2023-01-09T04:47:38.637Z,96916.69
2023-01-09T04:50:05.443Z,96923.38
2023-01-09T04:52:32.216Z,96933.28
2023-01-09T04:54:58.859Z,96928.31
2023-01-09T04:57:25.736Z,96925.88
2023-01-09T04:59:54.050Z,96930.28
2023-01-09T05:02:20.977Z,96939.59
2023-01-09T05:04:47.656Z,96936.03
2023-01-09T05:07:14.563Z,96928.06
2023-01-09T05:09:41.288Z,96934.66
2023-01-09T05:12:08.023Z,96932.53
2023-01-09T05:14:34.675Z,96934.66
2023-01-09T05:17:01.422Z,96938.44
2023-01-09T05:19:28.095Z,96932.00
2023-01-09T05:21:54.748Z,96940.81
2023-01-09T05:24:21.470Z,96940.63
2023-01-09T05:26:48.187Z,96942.06
2023-01-09T05:29:14.885Z,96943.44
2023-01-09T05:31:41.613Z,96941.56
2023-01-09T05:34:08.561Z,96944.44
2023-01-09T05:36:35.230Z,96954.66
2023-01-09T05:39:02.792Z,96954.72
2023-01-09T05:41:29.521Z,96954.06
2023-01-09T05:43:56.468Z,96955.91
2023-01-09T05:46:23.234Z,96951.81
2023-01-09T05:48:49.864Z,96962.47
2023-01-09T05:51:16.801Z,96967.72
2023-01-09T05:53:43.457Z,96963.97
2023-01-09T05:56:11.690Z,96967.84
2023-01-09T05:58:39.141Z,96966.31
2023-01-09T06:01:06.527Z,96964.31
2023-01-09T06:03:34.216Z,96964.97
2023-01-09T06:06:00.841Z,96965.59
2023-01-09T06:08:27.595Z,96971.72
2023-01-09T06:10:54.205Z,96966.84
2023-01-09T06:13:20.870Z,96966.94
2023-01-09T06:15:48.491Z,96974.91
2023-01-09T06:18:15.899Z,96971.53
2023-01-09T06:20:44.963Z,96974.63
2023-01-09T06:23:13.468Z,96975.97
2023-01-09T06:25:40.970Z,96975.50
2023-01-09T06:28:07.894Z,96978.09
2023-01-09T06:30:34.626Z,96977.25
2023-01-09T06:33:01.375Z,96985.47
2023-01-09T06:35:28.017Z,96985.38
2023-01-09T06:37:54.797Z,96987.25
2023-01-09T06:40:21.439Z,96986.00
2023-01-09T06:42:48.535Z,96993.94
2023-01-09T06:45:15.819Z,96997.28
2023-01-09T06:47:42.497Z,97002.22
2023-01-09T06:50:09.915Z,97019.19
2023-01-09T06:52:37.200Z,97009.69
2023-01-09T06:55:04.131Z,97011.44
2023-01-09T06:57:30.875Z,97010.09
2023-01-09T06:59:57.877Z,97011.09
2023-01-09T07:02:24.765Z,97010.53
2023-01-09T07:04:51.507Z,97015.53
2023-01-09T07:07:19.768Z,97020.88
2023-01-09T07:09:46.515Z,97029.66
2023-01-09T07:12:14.778Z,97033.16
2023-01-09T07:14:41.697Z,97030.56
2023-01-09T07:17:12.303Z,97033.78
2023-01-09T07:19:39.168Z,97048.38
2023-01-09T07:22:05.801Z,97034.34
2023-01-09T07:24:32.547Z,97038.06
2023-01-09T07:26:59.212Z,97036.78
2023-01-09T07:29:25.866Z,97041.47
2023-01-09T07:31:52.495Z,97029.75
2023-01-09T07:34:19.549Z,97019.59
2023-01-09T07:36:50.608Z,97023.25
2023-01-09T07:39:17.586Z,97026.56
2023-01-09T07:41:44.889Z,97021.47
2023-01-09T07:44:12.280Z,97021.38
2023-01-09T07:46:39.295Z,97030.38
2023-01-09T07:49:06.411Z,97038.31
2023-01-09T07:51:33.119Z,97041.88
2023-01-09T07:53:59.890Z,97040.88
2023-01-09T07:56:26.569Z,97037.78
2023-01-09T07:58:53.369Z,97049.47
2023-01-09T08:01:20.284Z,97046.19
2023-01-09T08:03:47.023Z,97049.97
2023-01-09T08:06:13.781Z,97058.38
2023-01-09T08:08:40.401Z,97058.66
2023-01-09T08:11:07.161Z,97043.44
2023-01-09T08:13:33.869Z,97059.50
2023-01-09T08:16:00.668Z,97056.97
2023-01-09T08:18:27.407Z,97073.97
2023-01-09T08:20:54.078Z,97067.72
2023-01-09T08:23:20.846Z,97068.13
2023-01-09T08:25:47.696Z,97072.34
2023-01-09T08:28:14.434Z,97070.22
2023-01-09T08:30:41.220Z,97068.00
2023-01-09T08:33:07.925Z,97065.56
2023-01-09T08:35:35.322Z,97065.38
2023-01-09T08:38:02.250Z,97071.06
2023-01-09T08:40:28.956Z,97070.88
2023-01-09T08:43:14.033Z,97062.69
2023-01-09T08:45:59.426Z,97052.09
2023-01-09T08:48:26.105Z,97061.84
2023-01-09T08:50:54.231Z,97061.59
2023-01-09T08:53:20.987Z,97068.72
2023-01-09T08:55:47.828Z,97069.03
2023-01-09T08:58:14.496Z,97067.47
2023-01-09T09:00:41.603Z,97078.41
2023-01-09T09:03:10.971Z,97080.41
2023-01-09T09:05:38.031Z,97067.78
2023-01-09T09:08:04.830Z,97082.38
2023-01-09T09:10:31.524Z,97071.88
2023-01-09T09:12:59.794Z,97072.16
2023-01-09T09:15:27.926Z,97068.00
2023-01-09T09:17:56.092Z,97073.41
2023-01-09T09:20:25.124Z,97069.13
2023-01-09T09:22:52.194Z,97069.50
2023-01-09T09:25:19.649Z,97081.91
2023-01-09T09:27:46.859Z,97076.25
2023-01-09T09:30:15.968Z,97083.91
2023-01-09T09:32:42.926Z,97088.06
2023-01-09T09:35:09.986Z,97083.78
2023-01-09T09:37:37.217Z,97081.84
2023-01-09T09:40:17.561Z,97083.19
2023-01-09T09:43:36.407Z,97093.03
2023-01-09T09:46:22.492Z,97097.75
2023-01-09T09:49:16.187Z,97094.22
2023-01-09T09:51:48.602Z,97088.94
2023-01-09T09:54:21.583Z,97094.94
2023-01-09T09:56:52.689Z,97095.75
2023-01-09T09:59:22.593Z,97094.66
2023-01-09T10:01:59.572Z,97103.44
2023-01-09T10:04:30.559Z,97094.00
2023-01-09T10:07:09.330Z,97107.09
2023-01-09T10:09:49.980Z,97094.09
2023-01-09T10:12:50.494Z,97097.47
2023-01-09T10:15:19.831Z,97110.94
2023-01-09T10:18:10.006Z,97100.00
2023-01-09T10:20:49.210Z,97103.63
2023-01-09T10:23:55.245Z,97116.25
2023-01-09T10:26:51.001Z,97110.78
2023-01-09T10:29:40.162Z,97106.06
2023-01-09T10:32:36.016Z,97112.06
2023-01-09T10:35:46.971Z,97114.50
2023-01-09T10:38:19.893Z,97112.50
2023-01-09T10:41:12.918Z,97110.59
2023-01-09T10:43:47.337Z,97113.28
2023-01-09T10:46:29.380Z,97114.88
2023-01-09T10:49:00.778Z,97119.72
2023-01-09T10:52:06.003Z,97125.75
2023-01-09T10:54:32.747Z,97123.34
2023-01-09T10:57:12.915Z,97117.44
2023-01-09T10:59:41.563Z,97115.16
2023-01-09T11:02:30.771Z,97126.59
2023-01-09T11:04:57.736Z,97118.56
2023-01-09T11:07:35.737Z,97125.53
2023-01-09T11:10:04.657Z,97112.31
2023-01-09T11:12:33.612Z,97113.34
2023-01-09T11:15:23.752Z,97116.88
2023-01-09T11:17:51.686Z,97116.78
2023-01-09T11:20:26.235Z,97117.88
2023-01-09T11:22:55.996Z,97116.03
2023-01-09T11:25:25.241Z,97115.41
2023-01-09T11:28:04.592Z,97107.75
2023-01-09T11:30:51.031Z,97122.38
2023-01-09T11:33:25.271Z,97117.38
2023-01-09T11:36:06.017Z,97120.44
2023-01-09T11:38:46.619Z,97120.16
2023-01-09T11:41:18.771Z,97124.16
2023-01-09T11:43:49.066Z,97121.06
2023-01-09T11:46:32.953Z,97122.22
2023-01-09T11:49:01.713Z,97121.22
2023-01-09T11:51:36.789Z,97124.66
2023-01-09T11:54:06.562Z,97117.78
2023-01-09T11:56:33.595Z,97105.41
2023-01-09T11:59:00.337Z,97107.63
2023-01-09T12:01:55.105Z,97091.75
2023-01-09T12:04:54.745Z,97088.91
2023-01-09T12:07:27.398Z,97071.22
2023-01-09T12:10:31.757Z,97087.50
2023-01-09T12:13:19.527Z,97086.47
2023-01-09T12:16:23.536Z,97080.16
2023-01-09T12:19:15.469Z,97089.91
2023-01-09T12:22:00.337Z,97100.16
2023-01-09T12:24:58.096Z,97094.47
2023-01-09T12:27:43.610Z,97092.88
2023-01-09T12:30:31.572Z,97086.88
2023-01-09T12:33:13.478Z,97093.13
2023-01-09T12:35:48.945Z,97098.44
2023-01-09T12:38:52.789Z,97094.56
2023-01-09T12:41:45.195Z,97090.34
2023-01-09T12:44:27.383Z,97091.25
2023-01-09T12:47:01.086Z,97092.50
2023-01-09T12:49:35.729Z,97105.66
2023-01-09T12:52:09.284Z,97107.22
2023-01-09T12:55:05.015Z,97109.47
2023-01-09T12:57:37.929Z,97114.69
2023-01-09T13:00:15.144Z,97109.19
2023-01-09T13:03:03.823Z,97123.09
2023-01-09T13:05:45.246Z,97127.25
2023-01-09T13:08:24.231Z,97126.22
2023-01-09T13:11:05.602Z,97130.06
2023-01-09T13:13:51.025Z,97124.47
2023-01-09T13:16:27.332Z,97127.44
2023-01-09T13:19:03.415Z,97126.28
2023-01-09T13:21:31.205Z,97121.22
2023-01-09T13:24:00.833Z,97120.28
2023-01-09T13:26:32.916Z,97128.28
2023-01-09T13:29:12.833Z,97133.25
2023-01-09T13:31:47.148Z,97144.63
2023-01-09T13:34:22.866Z,97159.00
2023-01-09T13:36:52.293Z,97160.19
2023-01-09T13:39:32.277Z,97151.06
2023-01-09T13:42:25.629Z,97156.84
2023-01-09T13:44:55.925Z,97156.97
2023-01-09T13:47:29.045Z,97155.06
2023-01-09T13:50:09.290Z,97170.78
2023-01-09T13:52:37.524Z,97178.69
2023-01-09T13:55:16.231Z,97178.34
2023-01-09T13:58:05.729Z,97188.38
2023-01-09T14:00:35.121Z,97180.81
2023-01-09T14:03:04.839Z,97181.03
2023-01-09T14:05:31.446Z,97189.13
2023-01-09T14:08:04.133Z,97188.50
2023-01-09T14:10:39.213Z,97196.09
2023-01-09T14:13:09.055Z,97193.22
2023-01-09T14:15:41.350Z,97197.69
2023-01-09T14:18:17.092Z,97201.47
2023-01-09T14:20:54.572Z,97208.53
2023-01-09T14:26:44.918Z,97214.28
2023-01-09T14:29:43.834Z,97221.91
2023-01-09T14:32:23.093Z,97225.41
2023-01-09T14:34:52.375Z,97227.19
2023-01-09T14:37:20.354Z,97231.78
2023-01-09T14:39:49.952Z,97245.72
2023-01-09T14:42:22.722Z,97248.91
2023-01-09T14:44:55.376Z,97268.31
2023-01-09T14:47:31.364Z,97283.06
2023-01-09T14:50:06.588Z,97282.97
2023-01-09T14:52:37.896Z,97288.22
2023-01-09T14:55:18.429Z,97303.31
2023-01-09T14:57:45.111Z,97305.84
2023-01-09T15:00:11.795Z,97315.03
2023-01-09T15:02:39.826Z,97314.19
2023-01-09T15:05:10.208Z,97315.53
2023-01-09T15:07:44.290Z,97321.97
2023-01-09T15:10:22.055Z,97325.56
2023-01-09T15:12:51.570Z,97321.94
2023-01-09T15:15:19.982Z,97330.56
2023-01-09T15:17:56.614Z,97334.09
2023-01-09T15:20:29.912Z,97338.50
2023-01-09T15:22:58.266Z,97347.59
2023-01-09T15:25:38.204Z,97350.34
2023-01-09T15:28:25.168Z,97352.72
2023-01-09T15:31:04.681Z,97361.34
2023-01-09T15:33:32.053Z,97372.00
2023-01-09T15:36:02.621Z,97374.41
2023-01-09T15:38:32.550Z,97371.38
2023-01-09T15:41:04.284Z,97386.72
2023-01-09T15:43:31.878Z,97385.94
2023-01-09T15:45:59.416Z,97388.38
2023-01-09T15:48:34.485Z,97395.97
2023-01-09T15:51:10.211Z,97392.09
2023-01-09T15:53:37.242Z,97403.47
2023-01-09T15:56:12.840Z,97415.03
2023-01-09T15:58:46.952Z,97406.00
2023-01-09T16:01:34.751Z,97426.03
2023-01-09T16:04:06.838Z,97436.84
2023-01-09T16:06:45.291Z,97444.06
2023-01-09T16:09:23.765Z,97436.72
2023-01-09T16:11:53.665Z,97447.09
2023-01-09T16:14:22.117Z,97458.28
2023-01-09T16:16:51.244Z,97461.09
2023-01-09T16:19:31.421Z,97456.84
2023-01-09T16:22:00.114Z,97470.97
2023-01-09T16:24:34.685Z,97476.75
2023-01-09T16:27:30.481Z,97486.75
2023-01-09T16:30:29.848Z,97490.34
2023-01-09T16:32:56.580Z,97489.00
2023-01-09T16:35:26.077Z,97493.97
2023-01-09T16:37:52.705Z,97494.47
2023-01-09T16:40:22.005Z,97497.06
2023-01-09T16:43:00.675Z,97499.88
2023-01-09T16:45:36.332Z,97501.69
2023-01-09T16:48:12.208Z,97510.63
2023-01-09T16:50:40.190Z,97512.81
2023-01-09T16:53:15.361Z,97527.53
2023-01-09T16:55:42.107Z,97525.00
2023-01-09T16:58:15.978Z,97533.06
2023-01-09T17:00:44.031Z,97539.66
2023-01-09T17:03:17.724Z,97537.53
2023-01-09T17:05:44.476Z,97543.34
2023-01-09T17:08:29.725Z,97547.19
2023-01-09T17:10:57.522Z,97551.78
2023-01-09T17:13:25.281Z,97560.34
2023-01-09T17:15:54.303Z,97560.38
2023-01-09T17:18:23.550Z,97561.78
2023-01-09T17:20:53.608Z,97576.69
2023-01-09T17:23:22.358Z,97573.81
2023-01-09T17:26:14.712Z,97580.91
2023-01-09T17:28:48.044Z,97576.63
2023-01-09T17:31:14.791Z,97588.59
2023-01-09T17:33:41.948Z,97587.09
2023-01-09T17:36:32.148Z,97590.75
2023-01-09T17:38:59.638Z,97601.69
2023-01-09T17:41:29.127Z,97598.72
2023-01-09T17:43:56.882Z,97601.22
2023-01-09T17:46:31.964Z,97610.94
2023-01-09T17:48:59.655Z,97612.59
2023-01-09T17:51:27.364Z,97609.97
2023-01-09T17:53:54.060Z,97615.47
2023-01-09T17:56:27.029Z,97613.09
2023-01-09T17:58:54.148Z,97618.72
2023-01-09T18:01:20.866Z,97622.06
2023-01-09T18:03:48.876Z,97628.13
2023-01-09T18:06:17.892Z,97628.88
2023-01-09T18:08:45.515Z,97624.41
2023-01-09T18:11:17.620Z,97635.13
2023-01-09T18:13:45.553Z,97642.59
2023-01-09T18:16:14.811Z,97642.25
2023-01-09T18:18:41.800Z,97647.06
2023-01-09T18:21:09.413Z,97643.09
2023-01-09T18:23:36.476Z,97647.56
2023-01-09T18:26:07.521Z,97656.28
2023-01-09T18:28:37.829Z,97650.84
2023-01-09T18:31:05.841Z,97655.22
2023-01-09T18:33:32.856Z,97661.25
2023-01-09T18:36:06.897Z,97663.00
2023-01-09T18:38:33.725Z,97667.84
2023-01-09T18:41:01.974Z,97666.50
2023-01-09T18:43:29.115Z,97668.81
2023-01-09T18:45:56.703Z,97680.28
2023-01-09T18:48:23.931Z,97678.56
2023-01-09T18:50:50.604Z,97684.97
2023-01-09T18:53:17.252Z,97700.16
2023-01-09T18:55:43.879Z,97697.38
2023-01-09T18:58:10.573Z,97695.59
2023-01-09T19:00:37.284Z,97700.66
2023-01-09T19:03:03.939Z,97712.59
2023-01-09T19:05:32.393Z,97705.91
2023-01-09T19:07:59.110Z,97723.63
2023-01-09T19:10:25.801Z,97732.25
2023-01-09T19:12:52.541Z,97739.22
2023-01-09T19:15:19.200Z,97738.28
2023-01-09T19:17:46.874Z,97748.75
2023-01-09T19:20:13.647Z,97755.69
2023-01-09T19:22:40.325Z,97764.81
2023-01-09T19:25:07.469Z,97754.38
2023-01-09T19:27:34.292Z,97757.66
2023-01-09T19:30:00.936Z,97757.91
2023-01-09T19:32:27.759Z,97760.38
2023-01-09T19:34:54.445Z,97758.56
2023-01-09T19:37:21.367Z,97767.59
2023-01-09T19:39:48.124Z,97764.75
2023-01-09T19:42:17.990Z,97771.19
2023-01-09T19:44:46.151Z,97769.19
2023-01-09T19:47:13.974Z,97784.63
2023-01-09T19:49:40.693Z,97787.25
2023-01-09T19:52:07.463Z,97788.16
2023-01-09T19:54:34.207Z,97794.94
2023-01-09T19:57:00.849Z,97801.94
2023-01-09T19:59:27.476Z,97797.13
2023-01-09T20:01:55.193Z,97807.00
2023-01-09T20:04:21.960Z,97812.41
2023-01-09T20:06:49.613Z,97818.09
2023-01-09T20:09:18.529Z,97826.88
2023-01-09T20:11:45.287Z,97834.38
2023-01-09T20:14:16.121Z,97837.59
2023-01-09T20:16:43.579Z,97838.28
2023-01-09T20:19:12.181Z,97846.69
2023-01-09T20:21:39.005Z,97848.44
2023-01-09T20:24:06.230Z,97859.53
2023-01-09T20:26:37.243Z,97850.53
2023-01-09T20:29:04.321Z,97855.63
2023-01-09T20:31:31.346Z,97855.94
2023-01-09T20:34:01.727Z,97863.63
2023-01-09T20:36:30.417Z,97865.44
2023-01-09T20:39:00.315Z,97873.00
2023-01-09T20:41:29.359Z,97872.31
2023-01-09T20:44:07.806Z,97873.94
2023-01-09T20:46:38.577Z,97874.31
2023-01-09T20:49:07.646Z,97882.75
2023-01-09T20:51:35.484Z,97888.44
2023-01-09T20:54:03.282Z,97885.00
2023-01-09T20:56:31.582Z,97886.81
2023-01-09T20:58:59.708Z,97895.34
2023-01-09T21:01:27.919Z,97897.88
2023-01-09T21:03:56.157Z,97898.72
2023-01-09T21:06:24.214Z,97899.38
2023-01-09T21:08:52.858Z,97908.41
2023-01-09T21:11:21.225Z,97909.75
2023-01-09T21:13:48.361Z,97914.34
2023-01-09T21:16:19.720Z,97909.16
2023-01-09T21:18:47.231Z,97922.44
2023-01-09T21:21:16.783Z,97921.28
2023-01-09T21:23:52.126Z,97917.91
2023-01-09T21:26:22.460Z,97913.44
2023-01-09T21:28:51.262Z,97913.50
2023-01-09T21:31:20.583Z,97907.72
2023-01-09T21:33:47.935Z,97915.69
2023-01-09T21:36:15.820Z,97922.44
2023-01-09T21:38:42.931Z,97924.13
2023-01-09T21:41:28.774Z,97935.75
2023-01-09T21:44:14.165Z,97950.47
2023-01-09T21:46:53.132Z,97956.47
2023-01-09T21:49:20.891Z,97970.19
2023-01-09T21:51:47.688Z,97974.56
2023-01-09T21:54:14.952Z,97977.25
2023-01-09T21:56:41.581Z,97979.69
2023-01-09T21:59:08.529Z,97988.53
2023-01-09T22:01:35.225Z,97996.31
2023-01-09T22:04:01.949Z,98009.63
2023-01-09T22:06:28.774Z,98014.72
2023-01-09T22:08:56.050Z,98031.44
2023-01-09T22:11:23.065Z,98036.28
2023-01-09T22:13:50.943Z,98050.28
2023-01-09T22:16:18.606Z,98053.63
2023-01-09T22:18:45.466Z,98066.03
2023-01-09T22:21:12.798Z,98065.63
2023-01-09T22:23:39.666Z,98081.09
2023-01-09T22:26:10.630Z,98085.06
2023-01-09T22:28:37.400Z,98083.31
2023-01-09T22:31:12.331Z,98077.28
2023-01-09T22:33:40.058Z,98087.03
2023-01-09T22:36:09.941Z,98091.47
2023-01-09T22:38:37.208Z,98098.97
2023-01-09T22:41:04.427Z,98105.78
2023-01-09T22:43:32.105Z,98115.38
2023-01-09T22:46:03.243Z,98120.53
2023-01-09T22:48:34.447Z,98124.88
2023-01-09T22:51:02.673Z,98127.75
2023-01-09T22:53:30.266Z,98130.31
2023-01-09T22:55:58.912Z,98137.56
2023-01-09T22:58:27.221Z,98131.47
2023-01-09T23:00:54.504Z,98142.00
2023-01-09T23:03:22.044Z,98141.91
2023-01-09T23:05:49.179Z,98144.44
2023-01-09T23:08:15.983Z,98144.28
2023-01-09T23:10:43.012Z,98142.66
2023-01-09T23:13:09.656Z,98146.88
2023-01-09T23:15:36.303Z,98151.25
2023-01-09T23:18:02.960Z,98157.38
2023-01-09T23:20:29.618Z,98167.03
2023-01-09T23:22:58.902Z,98170.41
2023-01-09T23:25:25.867Z,98176.50
2023-01-09T23:27:52.466Z,98176.72
2023-01-09T23:30:19.195Z,98179.16
2023-01-09T23:32:45.985Z,98197.53
2023-01-09T23:35:12.703Z,98201.94
2023-01-09T23:37:39.353Z,98208.94
2023-01-09T23:40:06.475Z,98223.41
2023-01-09T23:42:51.865Z,98224.00
2023-01-09T23:45:18.669Z,98225.63
2023-01-09T23:47:45.321Z,98223.00
2023-01-09T23:50:12.237Z,98230.09
2023-01-09T23:52:38.842Z,98233.56
2023-01-09T23:55:06.365Z,98238.72
2023-01-09T23:57:33.144Z,98246.56
2023-01-09T23:59:59.765Z,98247.44
